AFR116 LFPG-ZSPD
Flight info
| Callsign | AFR116 |
|---|---|
| Flight time | N/A |
| Altitude | 31000 |
| Route | LANVI DCT LUPEN UM164 UTABA DCT INPUL DCT VATET DCT MOPUG DCT ASNEL DCT UDROS UM859 KARDE UL851 TBN UM11 REBLO M11 LUSAL N199 RASAM L88 METKA B476 TIMGA A480 OTBOR/K0848F310 N147 ELAHA Z621 ARBOL M610 RULAD/K0832S0945 A343 POSOT B215 FKG W188 LIKMI W270 DKO W69 HUR B339 SOTMU W98 ELKUR W40 YQG W142 DALIM A593 DPX A470 DALNU W166 ZJ W167 SASAN SAS82A |
| Aircraft | B772/H-SDE2E3FGHIJ5LORVWXY/LB1D1 |
Departure
| Time | N/A |
|---|---|
| Airport | Charles de Gaulle International Airport (LFPG) |
Arrival
| Time | 2026-05-05 21:34 |
|---|---|
| Airport | Shanghai Pudong International Airport (ZSPD) |
| Time | Latitude | Longitude | Altitude | Speed | Heading |
|---|---|---|---|---|---|
| 2026-05-05 13:48 | 41.09931 | 57.29492 | 38818 ft | 526 kts | 83° |
| 2026-05-05 14:44 | 41.10703 | 57.36306 | 38814 ft | 526 kts | 82° |
| 2026-05-05 14:44 | 41.11782 | 57.45894 | 38818 ft | 526 kts | 82° |
| 2026-05-05 14:45 | 41.12846 | 57.55416 | 38825 ft | 525 kts | 82° |
| 2026-05-05 14:45 | 41.13908 | 57.65000 | 38820 ft | 525 kts | 82° |
| 2026-05-05 14:46 | 41.14949 | 57.74465 | 38825 ft | 525 kts | 82° |
| 2026-05-05 14:46 | 41.15995 | 57.84053 | 38834 ft | 525 kts | 82° |
| 2026-05-05 14:47 | 41.17026 | 57.93575 | 38840 ft | 525 kts | 83° |
| 2026-05-05 14:47 | 41.18057 | 58.03166 | 38840 ft | 525 kts | 83° |
| 2026-05-05 14:48 | 41.19080 | 58.12768 | 38836 ft | 525 kts | 83° |
| 2026-05-05 14:48 | 41.20091 | 58.22369 | 38835 ft | 525 kts | 83° |
| 2026-05-05 14:49 | 41.21087 | 58.31907 | 38850 ft | 525 kts | 83° |
| 2026-05-05 14:49 | 41.22083 | 58.41522 | 38837 ft | 525 kts | 83° |
| 2026-05-05 14:50 | 41.23071 | 58.51135 | 38844 ft | 525 kts | 83° |
| 2026-05-05 14:50 | 41.24051 | 58.60754 | 38841 ft | 525 kts | 83° |
| 2026-05-05 14:51 | 41.25016 | 58.70307 | 38853 ft | 525 kts | 83° |
| 2026-05-05 14:51 | 41.25980 | 58.79923 | 38857 ft | 525 kts | 83° |
| 2026-05-05 14:52 | 41.26937 | 58.89556 | 38856 ft | 526 kts | 83° |
| 2026-05-05 14:52 | 41.27885 | 58.99184 | 38859 ft | 526 kts | 83° |
| 2026-05-05 14:53 | 41.28826 | 59.08823 | 38863 ft | 525 kts | 83° |
| 2026-05-05 14:53 | 41.29751 | 59.18388 | 38867 ft | 525 kts | 83° |
| 2026-05-05 14:54 | 41.30674 | 59.28018 | 38866 ft | 525 kts | 83° |
| 2026-05-05 14:54 | 41.31589 | 59.37644 | 38875 ft | 524 kts | 83° |
| 2026-05-05 14:55 | 41.32495 | 59.47262 | 38875 ft | 524 kts | 83° |
| 2026-05-05 14:55 | 41.33393 | 59.56875 | 38871 ft | 523 kts | 83° |
| 2026-05-05 14:56 | 41.34384 | 59.66385 | 38876 ft | 522 kts | 78° |
| 2026-05-05 14:56 | 41.36381 | 59.75650 | 38886 ft | 520 kts | 70° |
| 2026-05-05 14:57 | 41.38701 | 59.84774 | 38889 ft | 520 kts | 70° |
| 2026-05-05 14:57 | 41.40968 | 59.93919 | 38892 ft | 520 kts | 71° |
| 2026-05-05 14:58 | 41.43178 | 60.03029 | 38897 ft | 520 kts | 71° |
| 2026-05-05 14:58 | 41.45394 | 60.12205 | 38894 ft | 520 kts | 71° |
| 2026-05-05 14:59 | 41.47606 | 60.21386 | 38901 ft | 520 kts | 71° |
| 2026-05-05 14:59 | 41.49776 | 60.30588 | 38912 ft | 520 kts | 72° |
| 2026-05-05 15:00 | 41.51561 | 60.38239 | 38911 ft | 520 kts | 72° |
| 2026-05-05 15:00 | 41.54058 | 60.48946 | 38912 ft | 519 kts | 72° |
| 2026-05-05 15:01 | 41.56198 | 60.58149 | 38914 ft | 519 kts | 72° |
| 2026-05-05 15:01 | 41.58337 | 60.67356 | 38915 ft | 518 kts | 71° |
| 2026-05-05 15:02 | 41.60687 | 60.76451 | 38909 ft | 517 kts | 69° |
| 2026-05-05 15:02 | 41.63114 | 60.85425 | 38916 ft | 517 kts | 69° |
| 2026-05-05 15:03 | 41.65519 | 60.94472 | 38928 ft | 516 kts | 69° |
| 2026-05-05 15:03 | 41.67885 | 61.03533 | 38925 ft | 516 kts | 69° |
| 2026-05-05 15:04 | 41.70236 | 61.12604 | 38927 ft | 516 kts | 69° |
| 2026-05-05 15:04 | 41.72580 | 61.21671 | 38930 ft | 516 kts | 69° |
| 2026-05-05 15:05 | 41.76073 | 61.35235 | 38928 ft | 516 kts | 70° |
| 2026-05-05 15:06 | 41.78405 | 61.44330 | 38929 ft | 516 kts | 70° |
| 2026-05-05 15:06 | 41.80730 | 61.53435 | 38937 ft | 517 kts | 70° |
| 2026-05-05 15:07 | 41.83033 | 61.62490 | 38932 ft | 517 kts | 70° |
| 2026-05-05 15:07 | 41.85348 | 61.71624 | 38930 ft | 517 kts | 70° |
| 2026-05-05 15:08 | 41.87651 | 61.80764 | 38930 ft | 517 kts | 70° |
| 2026-05-05 15:08 | 41.89935 | 61.89918 | 38932 ft | 517 kts | 70° |
| 2026-05-05 15:09 | 41.92214 | 61.99081 | 38929 ft | 517 kts | 70° |
| 2026-05-05 15:09 | 41.94471 | 62.08179 | 38929 ft | 517 kts | 70° |
| 2026-05-05 15:10 | 41.96737 | 62.17343 | 38933 ft | 517 kts | 70° |
| 2026-05-05 15:10 | 41.98997 | 62.26509 | 38934 ft | 517 kts | 70° |
| 2026-05-05 15:11 | 42.01248 | 62.35679 | 38935 ft | 516 kts | 70° |
| 2026-05-05 15:11 | 42.03474 | 62.44786 | 38943 ft | 516 kts | 70° |
| 2026-05-05 15:12 | 42.05708 | 62.53959 | 38932 ft | 516 kts | 70° |
| 2026-05-05 15:12 | 42.07935 | 62.63138 | 38931 ft | 516 kts | 70° |
| 2026-05-05 15:13 | 42.10159 | 62.72317 | 38928 ft | 516 kts | 70° |
| 2026-05-05 15:13 | 42.12376 | 62.81499 | 38934 ft | 515 kts | 70° |
| 2026-05-05 15:14 | 42.14563 | 62.90626 | 38934 ft | 515 kts | 70° |
| 2026-05-05 15:14 | 42.16758 | 62.99816 | 38941 ft | 515 kts | 70° |
| 2026-05-05 15:15 | 42.18957 | 63.09012 | 38948 ft | 515 kts | 70° |
| 2026-05-05 15:15 | 42.21157 | 63.18211 | 38946 ft | 516 kts | 70° |
| 2026-05-05 15:16 | 42.23334 | 63.27356 | 38948 ft | 516 kts | 70° |
| 2026-05-05 15:16 | 42.25518 | 63.36573 | 38948 ft | 515 kts | 70° |
| 2026-05-05 15:17 | 42.27692 | 63.45792 | 38965 ft | 515 kts | 70° |
| 2026-05-05 15:17 | 42.29859 | 63.55014 | 38966 ft | 515 kts | 70° |
| 2026-05-05 15:18 | 42.32002 | 63.64171 | 38968 ft | 515 kts | 70° |
| 2026-05-05 15:18 | 42.34150 | 63.73391 | 38971 ft | 514 kts | 70° |
| 2026-05-05 15:19 | 42.36290 | 63.82613 | 38973 ft | 514 kts | 70° |
| 2026-05-05 15:19 | 42.38421 | 63.91832 | 38973 ft | 513 kts | 70° |
| 2026-05-05 15:20 | 42.40527 | 64.00983 | 38991 ft | 513 kts | 70° |
| 2026-05-05 15:20 | 42.42589 | 64.10223 | 38984 ft | 513 kts | 71° |
| 2026-05-05 15:21 | 42.44630 | 64.19471 | 38986 ft | 512 kts | 70° |
| 2026-05-05 15:21 | 42.46687 | 64.28708 | 38979 ft | 512 kts | 70° |
| 2026-05-05 15:22 | 42.48765 | 64.37927 | 38987 ft | 512 kts | 70° |
| 2026-05-05 15:22 | 42.50826 | 64.47095 | 38991 ft | 512 kts | 70° |
| 2026-05-05 15:23 | 42.52888 | 64.56334 | 38991 ft | 512 kts | 70° |
| 2026-05-05 15:23 | 42.54941 | 64.65584 | 38995 ft | 512 kts | 70° |
| 2026-05-05 15:24 | 42.56985 | 64.74832 | 39000 ft | 512 kts | 70° |
| 2026-05-05 15:24 | 42.59007 | 64.84024 | 38995 ft | 512 kts | 71° |
| 2026-05-05 15:25 | 42.61035 | 64.93276 | 38997 ft | 511 kts | 71° |
| 2026-05-05 15:25 | 42.63052 | 65.02521 | 39004 ft | 510 kts | 71° |
| 2026-05-05 15:26 | 42.65059 | 65.11759 | 38984 ft | 509 kts | 71° |
| 2026-05-05 15:26 | 42.67040 | 65.20918 | 38992 ft | 508 kts | 71° |
| 2026-05-05 15:27 | 42.69022 | 65.30122 | 39004 ft | 507 kts | 71° |
| 2026-05-05 15:27 | 42.70993 | 65.39313 | 38986 ft | 506 kts | 71° |
| 2026-05-05 15:28 | 42.72954 | 65.48500 | 38989 ft | 505 kts | 71° |
| 2026-05-05 15:28 | 42.74904 | 65.57672 | 38989 ft | 505 kts | 71° |
| 2026-05-05 15:29 | 42.76834 | 65.66789 | 38994 ft | 505 kts | 71° |
| 2026-05-05 15:29 | 42.78769 | 65.75968 | 38988 ft | 504 kts | 71° |
| 2026-05-05 15:30 | 42.80708 | 65.85138 | 38991 ft | 504 kts | 71° |
| 2026-05-05 15:30 | 42.82651 | 65.94312 | 38996 ft | 504 kts | 71° |
| 2026-05-05 15:31 | 42.84571 | 66.03429 | 38995 ft | 504 kts | 71° |
| 2026-05-05 15:31 | 42.86487 | 66.12607 | 38988 ft | 504 kts | 72° |
| 2026-05-05 15:32 | 42.88353 | 66.21811 | 38988 ft | 503 kts | 72° |
| 2026-05-05 15:32 | 42.90202 | 66.31013 | 38992 ft | 503 kts | 72° |
| 2026-05-05 15:33 | 42.92048 | 66.40210 | 38990 ft | 503 kts | 72° |
| 2026-05-05 15:33 | 42.93878 | 66.49347 | 38992 ft | 502 kts | 72° |
| 2026-05-05 15:34 | 42.95711 | 66.58540 | 38991 ft | 502 kts | 72° |
| 2026-05-05 15:34 | 42.97561 | 66.67725 | 38996 ft | 501 kts | 72° |
| 2026-05-05 15:35 | 42.99421 | 66.76899 | 38993 ft | 501 kts | 72° |
| 2026-05-05 15:35 | 43.01255 | 66.86085 | 38999 ft | 501 kts | 72° |
| 2026-05-05 15:36 | 43.03056 | 66.95212 | 39009 ft | 501 kts | 72° |
| 2026-05-05 15:36 | 43.04864 | 67.04408 | 39004 ft | 501 kts | 72° |
| 2026-05-05 15:37 | 43.06667 | 67.13605 | 39000 ft | 501 kts | 73° |
| 2026-05-05 15:37 | 43.08464 | 67.22813 | 39002 ft | 501 kts | 73° |
| 2026-05-05 15:38 | 43.10241 | 67.31963 | 39011 ft | 501 kts | 73° |
| 2026-05-05 15:38 | 43.12024 | 67.41183 | 39015 ft | 501 kts | 73° |
| 2026-05-05 15:39 | 43.13799 | 67.50422 | 39015 ft | 502 kts | 73° |
| 2026-05-05 15:39 | 43.15563 | 67.59667 | 39013 ft | 502 kts | 73° |
| 2026-05-05 15:40 | 43.17318 | 67.68914 | 39018 ft | 502 kts | 73° |
| 2026-05-05 15:40 | 43.19058 | 67.78110 | 39014 ft | 502 kts | 73° |
| 2026-05-05 15:41 | 43.20807 | 67.87374 | 39022 ft | 502 kts | 73° |
| 2026-05-05 15:41 | 43.22555 | 67.96648 | 39018 ft | 502 kts | 73° |
| 2026-05-05 15:42 | 43.24294 | 68.05922 | 39015 ft | 502 kts | 73° |
| 2026-05-05 15:42 | 43.26012 | 68.15136 | 39016 ft | 502 kts | 74° |
| 2026-05-05 15:43 | 43.27733 | 68.24413 | 39018 ft | 502 kts | 74° |
| 2026-05-05 15:43 | 43.29448 | 68.33689 | 39029 ft | 501 kts | 74° |
| 2026-05-05 15:44 | 43.30840 | 68.43055 | 39030 ft | 501 kts | 79° |
| 2026-05-05 15:44 | 43.31935 | 68.52437 | 39020 ft | 501 kts | 79° |
| 2026-05-05 15:45 | 43.33041 | 68.61868 | 39028 ft | 500 kts | 81° |
| 2026-05-05 15:45 | 43.33842 | 68.71355 | 39020 ft | 500 kts | 83° |
| 2026-05-05 15:46 | 43.34577 | 68.80837 | 39030 ft | 499 kts | 82° |
| 2026-05-05 15:46 | 43.35354 | 68.90295 | 39039 ft | 498 kts | 82° |
| 2026-05-05 15:47 | 43.36141 | 68.99675 | 39052 ft | 497 kts | 82° |
| 2026-05-05 15:47 | 43.36923 | 69.09105 | 39050 ft | 496 kts | 82° |
| 2026-05-05 15:48 | 43.37693 | 69.18522 | 39056 ft | 496 kts | 82° |
| 2026-05-05 15:48 | 43.38500 | 69.27929 | 39053 ft | 495 kts | 82° |
| 2026-05-05 15:49 | 43.39319 | 69.37324 | 39059 ft | 495 kts | 82° |
| 2026-05-05 15:49 | 43.40118 | 69.46656 | 39057 ft | 495 kts | 82° |
| 2026-05-05 15:50 | 43.40910 | 69.56053 | 39067 ft | 495 kts | 82° |
| 2026-05-05 15:50 | 43.41695 | 69.65451 | 39066 ft | 495 kts | 82° |
| 2026-05-05 15:51 | 43.42473 | 69.74857 | 39074 ft | 495 kts | 82° |
| 2026-05-05 15:51 | 43.43260 | 69.84193 | 39066 ft | 495 kts | 82° |
| 2026-05-05 15:52 | 43.44064 | 69.93588 | 39064 ft | 494 kts | 82° |
| 2026-05-05 15:52 | 43.44859 | 70.02981 | 39065 ft | 494 kts | 82° |
| 2026-05-05 15:53 | 43.45642 | 70.12370 | 39061 ft | 494 kts | 82° |
| 2026-05-05 15:53 | 43.46415 | 70.21753 | 39047 ft | 493 kts | 82° |
| 2026-05-05 15:54 | 43.47175 | 70.31066 | 39046 ft | 493 kts | 82° |
| 2026-05-05 15:54 | 43.47931 | 70.40432 | 39046 ft | 492 kts | 82° |
| 2026-05-05 15:55 | 43.48680 | 70.49805 | 39044 ft | 492 kts | 83° |
| 2026-05-05 15:55 | 43.49422 | 70.59178 | 39044 ft | 492 kts | 83° |
| 2026-05-05 15:56 | 43.50150 | 70.68488 | 39042 ft | 493 kts | 83° |
| 2026-05-05 15:56 | 43.50878 | 70.77879 | 39043 ft | 493 kts | 83° |
| 2026-05-05 15:57 | 43.51598 | 70.87274 | 39047 ft | 493 kts | 83° |
| 2026-05-05 15:57 | 43.52304 | 70.96678 | 39043 ft | 494 kts | 83° |
| 2026-05-05 15:58 | 43.52994 | 71.06018 | 39043 ft | 494 kts | 83° |
| 2026-05-05 15:58 | 43.53682 | 71.15429 | 39044 ft | 494 kts | 83° |
| 2026-05-05 15:59 | 43.54364 | 71.24846 | 39043 ft | 494 kts | 83° |
| 2026-05-05 15:59 | 43.55038 | 71.34258 | 39044 ft | 494 kts | 83° |
| 2026-05-05 16:00 | 43.55705 | 71.43674 | 39043 ft | 493 kts | 83° |
| 2026-05-05 16:00 | 43.56359 | 71.53029 | 39054 ft | 493 kts | 83° |
| 2026-05-05 16:01 | 43.57009 | 71.62443 | 39048 ft | 493 kts | 84° |
| 2026-05-05 16:01 | 43.57652 | 71.71856 | 39043 ft | 493 kts | 84° |
| 2026-05-05 16:02 | 43.58286 | 71.81267 | 39045 ft | 493 kts | 84° |
| 2026-05-05 16:02 | 43.58909 | 71.90611 | 39048 ft | 492 kts | 84° |
| 2026-05-05 16:03 | 43.59527 | 72.00008 | 39045 ft | 491 kts | 84° |
| 2026-05-05 16:03 | 43.60136 | 72.09391 | 39042 ft | 491 kts | 84° |
| 2026-05-05 16:04 | 43.60737 | 72.18762 | 39046 ft | 490 kts | 84° |
| 2026-05-05 16:04 | 43.61325 | 72.28064 | 39053 ft | 490 kts | 84° |
| 2026-05-05 16:05 | 43.61910 | 72.37424 | 39047 ft | 489 kts | 84° |
| 2026-05-05 16:05 | 43.62486 | 72.46773 | 39055 ft | 489 kts | 84° |
| 2026-05-05 16:06 | 43.63054 | 72.56115 | 39047 ft | 488 kts | 84° |
| 2026-05-05 16:06 | 43.63614 | 72.65459 | 39059 ft | 488 kts | 84° |
| 2026-05-05 16:07 | 43.64163 | 72.74735 | 39050 ft | 488 kts | 84° |
| 2026-05-05 16:07 | 43.64707 | 72.84069 | 39052 ft | 487 kts | 84° |
| 2026-05-05 16:08 | 43.65244 | 72.93396 | 39052 ft | 487 kts | 84° |
| 2026-05-05 16:08 | 43.65772 | 73.02723 | 39059 ft | 487 kts | 84° |
| 2026-05-05 16:09 | 43.66289 | 73.11982 | 39053 ft | 487 kts | 84° |
| 2026-05-05 16:09 | 43.66803 | 73.21300 | 39055 ft | 487 kts | 84° |
| 2026-05-05 16:10 | 43.67308 | 73.30616 | 39060 ft | 486 kts | 84° |
| 2026-05-05 16:10 | 43.67805 | 73.39933 | 39054 ft | 486 kts | 85° |
| 2026-05-05 16:11 | 43.68292 | 73.49179 | 39050 ft | 486 kts | 85° |
| 2026-05-05 16:12 | 43.69249 | 73.67795 | 39059 ft | 485 kts | 85° |
| 2026-05-05 16:13 | 43.69174 | 73.91081 | 39058 ft | 485 kts | 92° |
| 2026-05-05 16:13 | 43.68881 | 74.00337 | 39063 ft | 485 kts | 91° |
| 2026-05-05 16:14 | 43.68330 | 74.18973 | 39077 ft | 486 kts | 91° |
| 2026-05-05 16:15 | 43.67760 | 74.37615 | 39104 ft | 485 kts | 91° |
| 2026-05-05 16:16 | 43.67171 | 74.56183 | 39107 ft | 485 kts | 91° |
| 2026-05-05 16:17 | 43.66706 | 74.70150 | 39109 ft | 485 kts | 91° |
| 2026-05-05 16:18 | 43.66227 | 74.84042 | 39109 ft | 485 kts | 91° |
| 2026-05-05 16:19 | 43.65729 | 74.97989 | 39112 ft | 485 kts | 92° |
| 2026-05-05 16:19 | 43.65214 | 75.11926 | 39115 ft | 485 kts | 92° |
| 2026-05-05 16:20 | 43.64503 | 75.30469 | 39101 ft | 485 kts | 92° |
| 2026-05-05 16:22 | 43.63570 | 75.53747 | 39107 ft | 486 kts | 92° |
| 2026-05-05 16:23 | 43.62776 | 75.72327 | 39103 ft | 487 kts | 92° |
| 2026-05-05 16:23 | 43.62159 | 75.86325 | 39099 ft | 487 kts | 92° |
| 2026-05-05 16:24 | 43.61741 | 75.95591 | 39101 ft | 487 kts | 92° |
| 2026-05-05 16:25 | 43.61097 | 76.09585 | 39094 ft | 487 kts | 92° |
| 2026-05-05 16:25 | 43.60436 | 76.23574 | 39097 ft | 487 kts | 92° |
| 2026-05-05 16:26 | 43.59923 | 76.42154 | 39097 ft | 486 kts | 88° |
| 2026-05-05 16:27 | 43.59932 | 76.51469 | 39093 ft | 486 kts | 89° |
| 2026-05-05 16:27 | 43.59909 | 76.60799 | 39079 ft | 486 kts | 89° |
| 2026-05-05 16:28 | 43.59862 | 76.70124 | 39090 ft | 486 kts | 89° |
| 2026-05-05 16:28 | 43.59810 | 76.79392 | 39087 ft | 486 kts | 89° |
| 2026-05-05 16:29 | 43.59709 | 76.88726 | 39087 ft | 487 kts | 90° |
| 2026-05-05 16:29 | 43.59574 | 76.98066 | 39086 ft | 487 kts | 90° |
| 2026-05-05 16:30 | 43.59485 | 77.07410 | 39086 ft | 487 kts | 89° |
| 2026-05-05 16:30 | 43.59391 | 77.16702 | 39071 ft | 488 kts | 90° |
| 2026-05-05 16:31 | 43.59109 | 77.26054 | 39095 ft | 488 kts | 92° |
| 2026-05-05 16:31 | 43.58749 | 77.35405 | 39098 ft | 488 kts | 91° |
| 2026-05-05 16:32 | 43.58416 | 77.44764 | 39083 ft | 488 kts | 91° |
| 2026-05-05 16:32 | 43.58108 | 77.54057 | 39086 ft | 488 kts | 90° |
| 2026-05-05 16:33 | 43.57990 | 77.63415 | 39099 ft | 488 kts | 89° |
| 2026-05-05 16:33 | 43.57908 | 77.72778 | 39093 ft | 488 kts | 89° |
| 2026-05-05 16:34 | 43.57787 | 77.82143 | 39092 ft | 488 kts | 90° |
| 2026-05-05 16:34 | 43.57644 | 77.91503 | 39108 ft | 488 kts | 90° |
| 2026-05-05 16:35 | 43.57496 | 78.00797 | 39113 ft | 488 kts | 90° |
| 2026-05-05 16:35 | 43.57341 | 78.10157 | 39108 ft | 488 kts | 90° |
| 2026-05-05 16:36 | 43.57184 | 78.19517 | 39101 ft | 488 kts | 90° |
| 2026-05-05 16:36 | 43.57021 | 78.28869 | 39105 ft | 488 kts | 90° |
| 2026-05-05 16:37 | 43.56851 | 78.38161 | 39099 ft | 488 kts | 90° |
| 2026-05-05 16:37 | 43.56673 | 78.47517 | 39093 ft | 488 kts | 90° |
| 2026-05-05 16:38 | 43.56486 | 78.56869 | 39105 ft | 488 kts | 90° |
| 2026-05-05 16:38 | 43.56292 | 78.66228 | 39104 ft | 488 kts | 90° |
| 2026-05-05 16:39 | 43.56092 | 78.75519 | 39109 ft | 488 kts | 90° |
| 2026-05-05 16:39 | 43.55883 | 78.84873 | 39105 ft | 488 kts | 90° |
| 2026-05-05 16:40 | 43.55665 | 78.94228 | 39102 ft | 488 kts | 90° |
| 2026-05-05 16:40 | 43.55442 | 79.03569 | 39093 ft | 488 kts | 90° |
| 2026-05-05 16:41 | 43.55212 | 79.12844 | 39103 ft | 487 kts | 90° |
| 2026-05-05 16:41 | 43.54975 | 79.22168 | 39100 ft | 487 kts | 90° |
| 2026-05-05 16:42 | 43.54728 | 79.31487 | 39111 ft | 487 kts | 90° |
| 2026-05-05 16:42 | 43.54472 | 79.40805 | 39103 ft | 487 kts | 90° |
| 2026-05-05 16:43 | 43.54210 | 79.50134 | 39101 ft | 487 kts | 90° |
| 2026-05-05 16:43 | 43.53942 | 79.59405 | 39114 ft | 488 kts | 91° |
| 2026-05-05 16:44 | 43.53665 | 79.68748 | 39113 ft | 488 kts | 91° |
| 2026-05-05 16:44 | 43.53381 | 79.78095 | 39114 ft | 488 kts | 91° |
| 2026-05-05 16:45 | 43.53086 | 79.87453 | 39131 ft | 489 kts | 91° |
| 2026-05-05 16:45 | 43.52781 | 79.96765 | 39124 ft | 490 kts | 91° |
| 2026-05-05 16:46 | 43.52466 | 80.06148 | 39128 ft | 491 kts | 91° |
| 2026-05-05 16:46 | 43.52144 | 80.15542 | 39134 ft | 491 kts | 91° |
| 2026-05-05 16:47 | 43.51815 | 80.24942 | 39135 ft | 492 kts | 91° |
| 2026-05-05 16:47 | 43.51480 | 80.34287 | 39140 ft | 492 kts | 91° |
| 2026-05-05 16:48 | 43.51135 | 80.43699 | 39141 ft | 492 kts | 91° |
| 2026-05-05 16:48 | 43.50782 | 80.53112 | 39157 ft | 492 kts | 91° |
| 2026-05-05 16:49 | 43.50421 | 80.62529 | 39165 ft | 492 kts | 91° |
| 2026-05-05 16:49 | 43.50057 | 80.71886 | 39161 ft | 493 kts | 91° |
| 2026-05-05 16:50 | 43.49803 | 80.81306 | 39162 ft | 492 kts | 89° |
| 2026-05-05 16:50 | 43.49709 | 80.90725 | 39162 ft | 492 kts | 89° |
| 2026-05-05 16:51 | 43.49600 | 81.00143 | 39169 ft | 492 kts | 89° |
| 2026-05-05 16:51 | 43.49456 | 81.09507 | 39167 ft | 492 kts | 89° |
| 2026-05-05 16:52 | 43.49293 | 81.18929 | 39164 ft | 492 kts | 89° |
| 2026-05-05 16:52 | 43.49121 | 81.28345 | 39167 ft | 492 kts | 90° |
| 2026-05-05 16:53 | 43.48975 | 81.36176 | 39166 ft | 492 kts | 90° |
| 2026-05-05 16:53 | 43.48763 | 81.47126 | 39168 ft | 492 kts | 90° |
| 2026-05-05 16:54 | 43.48571 | 81.56553 | 39160 ft | 493 kts | 90° |
| 2026-05-05 16:54 | 43.48407 | 81.64393 | 39158 ft | 493 kts | 90° |
| 2026-05-05 16:55 | 43.48199 | 81.73829 | 39188 ft | 494 kts | 90° |
| 2026-05-05 16:55 | 43.48087 | 81.78559 | 39347 ft | 495 kts | 90° |
| 2026-05-05 16:55 | 43.47972 | 81.83297 | 39557 ft | 495 kts | 90° |
| 2026-05-05 16:56 | 43.47817 | 81.89561 | 39844 ft | 494 kts | 90° |
| 2026-05-05 16:56 | 43.47737 | 81.92751 | 39988 ft | 494 kts | 90° |
| 2026-05-05 16:56 | 43.47618 | 81.97480 | 40161 ft | 494 kts | 90° |
| 2026-05-05 16:56 | 43.47498 | 82.02151 | 40332 ft | 495 kts | 90° |
| 2026-05-05 16:57 | 43.47376 | 82.06885 | 40515 ft | 495 kts | 90° |
| 2026-05-05 16:57 | 43.47251 | 82.11621 | 40690 ft | 495 kts | 90° |
| 2026-05-05 16:57 | 43.47123 | 82.16361 | 40851 ft | 496 kts | 90° |
| 2026-05-05 16:57 | 43.46994 | 82.21103 | 41021 ft | 496 kts | 90° |
| 2026-05-05 16:58 | 43.46730 | 82.30621 | 41144 ft | 499 kts | 91° |
| 2026-05-05 16:58 | 43.46457 | 82.40107 | 41159 ft | 498 kts | 91° |
| 2026-05-05 16:59 | 43.46177 | 82.49611 | 41165 ft | 496 kts | 91° |
| 2026-05-05 16:59 | 43.45889 | 82.59072 | 41171 ft | 494 kts | 91° |
| 2026-05-05 17:00 | 43.45596 | 82.68504 | 41168 ft | 493 kts | 91° |
| 2026-05-05 17:00 | 43.45295 | 82.77923 | 41183 ft | 492 kts | 91° |
| 2026-05-05 17:01 | 43.44988 | 82.87280 | 41190 ft | 493 kts | 91° |
| 2026-05-05 17:01 | 43.44671 | 82.96725 | 41186 ft | 495 kts | 91° |
| 2026-05-05 17:02 | 43.44344 | 83.06199 | 41196 ft | 496 kts | 91° |
| 2026-05-05 17:02 | 43.44009 | 83.15696 | 41193 ft | 498 kts | 91° |
| 2026-05-05 17:03 | 43.43668 | 83.25157 | 41196 ft | 499 kts | 91° |
| 2026-05-05 17:03 | 43.43317 | 83.34702 | 41195 ft | 500 kts | 91° |
| 2026-05-05 17:04 | 43.42735 | 83.44238 | 41209 ft | 501 kts | 95° |
| 2026-05-05 17:04 | 43.41905 | 83.53774 | 41223 ft | 502 kts | 95° |
| 2026-05-05 17:05 | 43.41062 | 83.63323 | 41223 ft | 503 kts | 95° |
| 2026-05-05 17:05 | 43.40242 | 83.72813 | 41226 ft | 504 kts | 95° |
| 2026-05-05 17:06 | 43.39418 | 83.82380 | 41234 ft | 504 kts | 95° |
| 2026-05-05 17:06 | 43.38588 | 83.91935 | 41247 ft | 503 kts | 95° |
| 2026-05-05 17:07 | 43.37749 | 84.01487 | 41239 ft | 503 kts | 95° |
| 2026-05-05 17:07 | 43.36906 | 84.10975 | 41247 ft | 503 kts | 95° |
| 2026-05-05 17:08 | 43.36051 | 84.20512 | 41247 ft | 503 kts | 95° |
| 2026-05-05 17:08 | 43.35189 | 84.30045 | 41270 ft | 503 kts | 95° |
| 2026-05-05 17:09 | 43.34316 | 84.39572 | 41280 ft | 501 kts | 95° |
| 2026-05-05 17:09 | 43.33419 | 84.49003 | 41281 ft | 501 kts | 96° |
| 2026-05-05 17:10 | 43.32510 | 84.58483 | 41285 ft | 501 kts | 96° |
| 2026-05-05 17:10 | 43.31594 | 84.67967 | 41302 ft | 501 kts | 96° |
| 2026-05-05 17:11 | 43.30670 | 84.77463 | 41269 ft | 502 kts | 97° |
| 2026-05-05 17:11 | 43.29743 | 84.86905 | 41291 ft | 503 kts | 97° |
| 2026-05-05 17:12 | 43.28798 | 84.96438 | 41287 ft | 505 kts | 97° |
| 2026-05-05 17:12 | 43.27845 | 85.05996 | 41293 ft | 506 kts | 97° |
| 2026-05-05 17:13 | 43.26880 | 85.15574 | 41293 ft | 507 kts | 97° |
| 2026-05-05 17:13 | 43.25912 | 85.25101 | 41296 ft | 507 kts | 97° |
| 2026-05-05 17:14 | 43.24930 | 85.34685 | 41281 ft | 507 kts | 97° |
| 2026-05-05 17:14 | 43.23940 | 85.44264 | 41295 ft | 507 kts | 97° |
| 2026-05-05 17:15 | 43.22943 | 85.53829 | 41295 ft | 506 kts | 97° |
| 2026-05-05 17:15 | 43.21947 | 85.63316 | 41296 ft | 506 kts | 97° |
| 2026-05-05 17:16 | 43.20936 | 85.72858 | 41304 ft | 506 kts | 98° |
| 2026-05-05 17:16 | 43.19920 | 85.82386 | 41299 ft | 505 kts | 97° |
| 2026-05-05 17:17 | 43.18998 | 85.91915 | 41289 ft | 502 kts | 90° |
| 2026-05-05 17:17 | 43.19281 | 85.96593 | 41291 ft | 499 kts | 76° |
| 2026-05-05 17:17 | 43.20273 | 86.01120 | 41310 ft | 495 kts | 64° |
| 2026-05-05 17:18 | 43.21889 | 86.05245 | 41310 ft | 489 kts | 53° |
| 2026-05-05 17:18 | 43.23842 | 86.09059 | 41312 ft | 489 kts | 52° |
| 2026-05-05 17:18 | 43.27745 | 86.16753 | 41299 ft | 493 kts | 53° |
| 2026-05-05 17:19 | 43.31558 | 86.24624 | 41311 ft | 497 kts | 54° |
| 2026-05-05 17:19 | 43.35363 | 86.32485 | 41301 ft | 497 kts | 54° |
| 2026-05-05 17:20 | 43.39182 | 86.40384 | 41312 ft | 495 kts | 53° |
| 2026-05-05 17:20 | 43.42977 | 86.48237 | 41261 ft | 490 kts | 53° |
| 2026-05-05 17:21 | 43.46754 | 86.56005 | 41267 ft | 487 kts | 53° |
| 2026-05-05 17:22 | 43.52356 | 86.67568 | 41247 ft | 485 kts | 53° |
| 2026-05-05 17:22 | 43.56090 | 86.75324 | 41241 ft | 486 kts | 53° |
| 2026-05-05 17:23 | 43.59802 | 86.83141 | 41239 ft | 488 kts | 53° |
| 2026-05-05 17:23 | 43.63515 | 86.90989 | 41221 ft | 489 kts | 53° |
| 2026-05-05 17:24 | 43.67214 | 86.98815 | 41211 ft | 491 kts | 53° |
| 2026-05-05 17:24 | 43.70944 | 87.06724 | 41203 ft | 492 kts | 53° |
| 2026-05-05 17:25 | 43.74676 | 87.14661 | 41177 ft | 492 kts | 54° |
| 2026-05-05 17:25 | 43.78390 | 87.22620 | 41175 ft | 493 kts | 54° |
| 2026-05-05 17:26 | 43.82072 | 87.30545 | 41170 ft | 493 kts | 54° |
| 2026-05-05 17:26 | 43.85773 | 87.38525 | 41156 ft | 492 kts | 54° |
| 2026-05-05 17:27 | 43.89462 | 87.46498 | 41158 ft | 491 kts | 54° |
| 2026-05-05 17:27 | 43.93289 | 87.54299 | 41159 ft | 487 kts | 50° |
| 2026-05-05 17:28 | 43.97371 | 87.61697 | 41157 ft | 486 kts | 49° |
| 2026-05-05 17:28 | 44.01482 | 87.69138 | 41160 ft | 485 kts | 49° |
| 2026-05-05 17:29 | 44.05561 | 87.76615 | 41153 ft | 485 kts | 50° |
| 2026-05-05 17:29 | 44.09626 | 87.84110 | 41148 ft | 486 kts | 50° |
| 2026-05-05 17:30 | 44.13665 | 87.91567 | 41144 ft | 486 kts | 50° |
| 2026-05-05 17:30 | 44.17080 | 87.99719 | 41145 ft | 492 kts | 65° |
| 2026-05-05 17:31 | 44.19040 | 88.08876 | 41153 ft | 496 kts | 76° |
| 2026-05-05 17:31 | 44.20386 | 88.18311 | 41159 ft | 497 kts | 77° |
| 2026-05-05 17:32 | 44.21717 | 88.27711 | 41157 ft | 498 kts | 76° |
| 2026-05-05 17:32 | 44.23099 | 88.37177 | 41144 ft | 499 kts | 76° |
| 2026-05-05 17:33 | 44.24495 | 88.46646 | 41127 ft | 499 kts | 76° |
| 2026-05-05 17:33 | 44.25888 | 88.56129 | 41130 ft | 499 kts | 76° |
| 2026-05-05 17:34 | 44.27269 | 88.65611 | 41131 ft | 499 kts | 76° |
| 2026-05-05 17:34 | 44.28631 | 88.75034 | 41130 ft | 499 kts | 76° |
| 2026-05-05 17:35 | 44.29994 | 88.84519 | 41118 ft | 498 kts | 76° |
| 2026-05-05 17:35 | 44.31349 | 88.94009 | 41116 ft | 498 kts | 77° |
| 2026-05-05 17:36 | 44.32696 | 89.03503 | 41119 ft | 498 kts | 77° |
| 2026-05-05 17:36 | 44.34027 | 89.12940 | 41115 ft | 498 kts | 77° |
| 2026-05-05 17:37 | 44.35359 | 89.22448 | 41117 ft | 499 kts | 77° |
| 2026-05-05 17:37 | 44.36684 | 89.31961 | 41114 ft | 499 kts | 77° |
| 2026-05-05 17:38 | 44.37993 | 89.41425 | 41115 ft | 499 kts | 77° |
| 2026-05-05 17:38 | 44.39304 | 89.50960 | 41109 ft | 500 kts | 77° |
| 2026-05-05 17:39 | 44.40609 | 89.60507 | 41109 ft | 500 kts | 77° |
| 2026-05-05 17:39 | 44.41045 | 89.70206 | 41108 ft | 503 kts | 94° |
| 2026-05-05 17:40 | 44.39688 | 89.79781 | 41110 ft | 503 kts | 107° |
| 2026-05-05 17:40 | 44.37593 | 89.89058 | 41116 ft | 504 kts | 107° |
| 2026-05-05 17:41 | 44.35478 | 89.98398 | 41112 ft | 504 kts | 107° |
| 2026-05-05 17:41 | 44.33404 | 90.07766 | 41106 ft | 505 kts | 107° |
| 2026-05-05 17:42 | 44.31342 | 90.17155 | 41099 ft | 506 kts | 107° |
| 2026-05-05 17:42 | 44.29274 | 90.26534 | 41109 ft | 506 kts | 107° |
| 2026-05-05 17:43 | 44.27207 | 90.35852 | 41108 ft | 506 kts | 107° |
| 2026-05-05 17:43 | 44.25117 | 90.45228 | 41106 ft | 506 kts | 107° |
| 2026-05-05 17:44 | 44.23018 | 90.54601 | 41107 ft | 506 kts | 107° |
| 2026-05-05 17:44 | 44.20911 | 90.63971 | 41101 ft | 506 kts | 108° |
| 2026-05-05 17:45 | 44.18811 | 90.73269 | 41110 ft | 507 kts | 108° |
| 2026-05-05 17:45 | 44.16688 | 90.82631 | 41107 ft | 507 kts | 108° |
| 2026-05-05 17:46 | 44.14556 | 90.91991 | 41114 ft | 507 kts | 108° |
| 2026-05-05 17:46 | 44.12416 | 91.01350 | 41118 ft | 508 kts | 108° |
| 2026-05-05 17:47 | 44.10271 | 91.10712 | 41119 ft | 508 kts | 108° |
| 2026-05-05 17:47 | 44.08140 | 91.20012 | 41122 ft | 508 kts | 108° |
| 2026-05-05 17:48 | 44.05985 | 91.29386 | 41128 ft | 509 kts | 108° |
| 2026-05-05 17:48 | 44.03822 | 91.38753 | 41138 ft | 509 kts | 108° |
| 2026-05-05 17:49 | 44.01639 | 91.48114 | 41119 ft | 510 kts | 109° |
| 2026-05-05 17:49 | 43.99437 | 91.57408 | 41137 ft | 510 kts | 109° |
| 2026-05-05 17:50 | 43.97210 | 91.66762 | 41146 ft | 511 kts | 109° |
| 2026-05-05 17:50 | 43.94977 | 91.76120 | 41146 ft | 511 kts | 109° |
| 2026-05-05 17:51 | 43.92737 | 91.85482 | 41154 ft | 511 kts | 109° |
| 2026-05-05 17:51 | 43.90505 | 91.94769 | 41168 ft | 512 kts | 109° |
| 2026-05-05 17:52 | 43.88245 | 92.04136 | 41163 ft | 513 kts | 109° |
| 2026-05-05 17:52 | 43.85975 | 92.13504 | 41159 ft | 513 kts | 109° |
| 2026-05-05 17:53 | 43.83694 | 92.22874 | 41163 ft | 513 kts | 109° |
| 2026-05-05 17:53 | 43.81422 | 92.32176 | 41150 ft | 514 kts | 109° |
| 2026-05-05 17:54 | 43.79123 | 92.41547 | 41149 ft | 514 kts | 109° |
| 2026-05-05 17:54 | 43.76812 | 92.50925 | 41158 ft | 515 kts | 110° |
| 2026-05-05 17:55 | 43.74490 | 92.60314 | 41148 ft | 516 kts | 110° |
| 2026-05-05 17:55 | 43.72157 | 92.69708 | 41142 ft | 517 kts | 110° |
| 2026-05-05 17:56 | 43.69831 | 92.79039 | 41143 ft | 517 kts | 110° |
| 2026-05-05 17:56 | 43.67480 | 92.88430 | 41142 ft | 517 kts | 110° |
| 2026-05-05 17:57 | 43.65120 | 92.97824 | 41153 ft | 518 kts | 110° |
| 2026-05-05 17:57 | 43.62815 | 93.07242 | 41150 ft | 518 kts | 109° |
| 2026-05-05 17:58 | 43.60591 | 93.16621 | 41150 ft | 517 kts | 109° |
| 2026-05-05 17:58 | 43.58346 | 93.26047 | 41131 ft | 517 kts | 109° |
| 2026-05-05 17:59 | 43.56085 | 93.35440 | 41151 ft | 516 kts | 110° |
| 2026-05-05 17:59 | 43.53812 | 93.44816 | 41148 ft | 515 kts | 110° |
| 2026-05-05 18:00 | 43.51548 | 93.54113 | 41150 ft | 515 kts | 110° |
| 2026-05-05 18:00 | 43.49262 | 93.63466 | 41155 ft | 515 kts | 110° |
| 2026-05-05 18:01 | 43.46971 | 93.72806 | 41157 ft | 515 kts | 110° |
| 2026-05-05 18:01 | 43.44671 | 93.82145 | 41143 ft | 515 kts | 110° |
| 2026-05-05 18:02 | 43.42381 | 93.91403 | 41147 ft | 515 kts | 110° |
| 2026-05-05 18:02 | 43.40068 | 94.00719 | 41134 ft | 514 kts | 110° |
| 2026-05-05 18:03 | 43.37752 | 94.10008 | 41159 ft | 513 kts | 110° |
| 2026-05-05 18:03 | 43.35430 | 94.19283 | 41155 ft | 513 kts | 110° |
| 2026-05-05 18:04 | 43.33119 | 94.28480 | 41149 ft | 513 kts | 111° |
| 2026-05-05 18:04 | 43.30784 | 94.37734 | 41155 ft | 513 kts | 111° |
| 2026-05-05 18:05 | 43.28440 | 94.46987 | 41159 ft | 513 kts | 111° |
| 2026-05-05 18:05 | 43.26086 | 94.56244 | 41152 ft | 514 kts | 111° |
| 2026-05-05 18:06 | 43.23723 | 94.65502 | 41160 ft | 515 kts | 111° |
| 2026-05-05 18:06 | 43.21365 | 94.74702 | 41136 ft | 515 kts | 111° |
| 2026-05-05 18:07 | 43.18981 | 94.83967 | 41136 ft | 516 kts | 111° |
| 2026-05-05 18:07 | 43.16591 | 94.93227 | 41122 ft | 516 kts | 112° |
| 2026-05-05 18:08 | 43.14160 | 95.02399 | 41109 ft | 513 kts | 117° |
| 2026-05-05 18:08 | 43.12433 | 95.06632 | 41108 ft | 507 kts | 130° |
| 2026-05-05 18:08 | 43.10206 | 95.10345 | 41120 ft | 502 kts | 139° |
| 2026-05-05 18:08 | 43.07619 | 95.13506 | 41110 ft | 495 kts | 150° |
| 2026-05-05 18:09 | 43.04778 | 95.16134 | 41124 ft | 493 kts | 152° |
| 2026-05-05 18:09 | 42.99022 | 95.21317 | 41096 ft | 498 kts | 152° |
| 2026-05-05 18:10 | 42.93245 | 95.26595 | 41109 ft | 501 kts | 151° |
| 2026-05-05 18:10 | 42.87498 | 95.31915 | 41081 ft | 504 kts | 151° |
| 2026-05-05 18:11 | 42.81698 | 95.37290 | 41075 ft | 504 kts | 151° |
| 2026-05-05 18:11 | 42.75900 | 95.42648 | 41079 ft | 504 kts | 151° |
| 2026-05-05 18:12 | 42.70101 | 95.47988 | 41073 ft | 503 kts | 151° |
| 2026-05-05 18:12 | 42.64355 | 95.53268 | 41068 ft | 501 kts | 151° |
| 2026-05-05 18:13 | 42.58591 | 95.58550 | 41069 ft | 499 kts | 151° |
| 2026-05-05 18:13 | 42.52843 | 95.63807 | 41067 ft | 497 kts | 151° |
| 2026-05-05 18:14 | 42.47109 | 95.69040 | 41041 ft | 496 kts | 152° |
| 2026-05-05 18:14 | 42.41641 | 95.74578 | 41059 ft | 501 kts | 136° |
| 2026-05-05 18:14 | 42.39675 | 95.78508 | 41073 ft | 510 kts | 118° |
| 2026-05-05 18:15 | 42.38526 | 95.83068 | 41072 ft | 517 kts | 101° |
| 2026-05-05 18:15 | 42.38233 | 95.92771 | 41077 ft | 518 kts | 92° |
| 2026-05-05 18:16 | 42.38084 | 96.02552 | 41082 ft | 522 kts | 93° |
| 2026-05-05 18:16 | 42.37842 | 96.12391 | 41078 ft | 525 kts | 94° |
| 2026-05-05 18:17 | 42.37554 | 96.22211 | 41087 ft | 527 kts | 94° |
| 2026-05-05 18:17 | 42.37250 | 96.32134 | 41081 ft | 529 kts | 94° |
| 2026-05-05 18:18 | 42.36943 | 96.42074 | 41086 ft | 529 kts | 94° |
| 2026-05-05 18:18 | 42.36631 | 96.52012 | 41072 ft | 529 kts | 95° |
| 2026-05-05 18:19 | 42.36312 | 96.61865 | 41077 ft | 527 kts | 95° |
| 2026-05-05 18:19 | 42.35984 | 96.71753 | 41074 ft | 526 kts | 95° |
| 2026-05-05 18:20 | 42.35647 | 96.81624 | 41082 ft | 525 kts | 95° |
| 2026-05-05 18:20 | 42.35303 | 96.91480 | 41067 ft | 525 kts | 95° |
| 2026-05-05 18:21 | 42.34949 | 97.01329 | 41069 ft | 525 kts | 96° |
| 2026-05-05 18:21 | 42.34590 | 97.11114 | 41068 ft | 525 kts | 96° |
| 2026-05-05 18:22 | 42.34220 | 97.20979 | 41073 ft | 526 kts | 96° |
| 2026-05-05 18:22 | 42.33840 | 97.30853 | 41054 ft | 526 kts | 96° |
| 2026-05-05 18:23 | 42.33452 | 97.40738 | 41059 ft | 527 kts | 96° |
| 2026-05-05 18:23 | 42.33056 | 97.50628 | 41058 ft | 527 kts | 96° |
| 2026-05-05 18:24 | 42.32653 | 97.60463 | 41053 ft | 528 kts | 96° |
| 2026-05-05 18:24 | 42.32237 | 97.70384 | 41048 ft | 529 kts | 96° |
| 2026-05-05 18:25 | 42.31813 | 97.80321 | 41053 ft | 530 kts | 96° |
| 2026-05-05 18:25 | 42.31379 | 97.90273 | 41046 ft | 531 kts | 96° |
| 2026-05-05 18:26 | 42.30939 | 98.00170 | 41037 ft | 532 kts | 96° |
| 2026-05-05 18:26 | 42.30487 | 98.10151 | 41041 ft | 533 kts | 96° |
| 2026-05-05 18:27 | 42.30025 | 98.20152 | 41041 ft | 534 kts | 97° |
| 2026-05-05 18:27 | 42.29555 | 98.30156 | 41038 ft | 534 kts | 97° |
| 2026-05-05 18:28 | 42.28806 | 98.45101 | 41039 ft | 534 kts | 97° |
| 2026-05-05 18:28 | 42.28280 | 98.55103 | 41033 ft | 534 kts | 97° |
| 2026-05-05 18:29 | 42.27749 | 98.65105 | 41026 ft | 534 kts | 97° |
| 2026-05-05 18:29 | 42.27212 | 98.75099 | 41020 ft | 534 kts | 97° |
| 2026-05-05 18:30 | 42.26667 | 98.85100 | 41023 ft | 534 kts | 97° |
| 2026-05-05 18:30 | 42.26117 | 98.95032 | 41025 ft | 534 kts | 97° |
| 2026-05-05 18:31 | 42.25554 | 99.05029 | 41028 ft | 534 kts | 97° |
| 2026-05-05 18:31 | 42.24983 | 99.15020 | 41029 ft | 535 kts | 97° |
| 2026-05-05 18:32 | 42.24401 | 99.25040 | 41022 ft | 536 kts | 97° |
| 2026-05-05 18:32 | 42.23809 | 99.35076 | 41024 ft | 537 kts | 97° |
| 2026-05-05 18:33 | 42.23212 | 99.45060 | 41011 ft | 538 kts | 98° |
| 2026-05-05 18:33 | 42.22601 | 99.55132 | 41007 ft | 539 kts | 97° |
| 2026-05-05 18:34 | 42.21979 | 99.65226 | 41016 ft | 540 kts | 98° |
| 2026-05-05 18:34 | 42.21348 | 99.75329 | 41006 ft | 541 kts | 98° |
| 2026-05-05 18:35 | 42.20711 | 99.85380 | 41004 ft | 542 kts | 98° |
| 2026-05-05 18:35 | 42.20060 | 99.95506 | 41006 ft | 542 kts | 98° |
| 2026-05-05 18:36 | 42.19400 | 100.05639 | 41005 ft | 543 kts | 98° |
| 2026-05-05 18:36 | 42.18730 | 100.15782 | 41002 ft | 543 kts | 98° |
| 2026-05-05 18:37 | 42.18056 | 100.25859 | 40999 ft | 543 kts | 98° |
| 2026-05-05 18:37 | 42.17368 | 100.36002 | 41002 ft | 543 kts | 98° |
| 2026-05-05 18:38 | 42.16671 | 100.46148 | 40997 ft | 544 kts | 98° |
| 2026-05-05 18:38 | 42.15965 | 100.56294 | 40997 ft | 544 kts | 98° |
| 2026-05-05 18:39 | 42.15254 | 100.66373 | 40997 ft | 544 kts | 98° |
| 2026-05-05 18:39 | 42.14529 | 100.76521 | 40999 ft | 544 kts | 98° |
| 2026-05-05 18:40 | 42.13796 | 100.86665 | 40998 ft | 544 kts | 98° |
| 2026-05-05 18:40 | 42.13055 | 100.96814 | 40996 ft | 544 kts | 98° |
| 2026-05-05 18:41 | 42.11825 | 101.06822 | 40998 ft | 539 kts | 108° |
| 2026-05-05 18:41 | 42.09482 | 101.16277 | 41004 ft | 535 kts | 115° |
| 2026-05-05 18:42 | 42.06936 | 101.25691 | 40994 ft | 536 kts | 115° |
| 2026-05-05 18:42 | 42.04419 | 101.35128 | 40980 ft | 536 kts | 114° |
| 2026-05-05 18:43 | 42.01924 | 101.44581 | 40994 ft | 537 kts | 114° |
| 2026-05-05 18:43 | 41.99425 | 101.54044 | 40999 ft | 537 kts | 114° |
| 2026-05-05 18:44 | 41.96932 | 101.63437 | 40998 ft | 537 kts | 114° |
| 2026-05-05 18:44 | 41.94409 | 101.72892 | 40991 ft | 538 kts | 114° |
| 2026-05-05 18:45 | 41.91879 | 101.82342 | 40993 ft | 538 kts | 114° |
| 2026-05-05 18:45 | 41.89338 | 101.91793 | 41002 ft | 538 kts | 114° |
| 2026-05-05 18:46 | 41.86805 | 102.01175 | 40996 ft | 539 kts | 114° |
| 2026-05-05 18:46 | 41.84247 | 102.10618 | 41003 ft | 539 kts | 114° |
| 2026-05-05 18:47 | 41.81681 | 102.20057 | 40997 ft | 539 kts | 114° |
| 2026-05-05 18:47 | 41.79107 | 102.29485 | 41003 ft | 538 kts | 115° |
| 2026-05-05 18:48 | 41.76529 | 102.38895 | 40992 ft | 538 kts | 115° |
| 2026-05-05 18:48 | 41.73961 | 102.48232 | 40990 ft | 537 kts | 115° |
| 2026-05-05 18:49 | 41.71373 | 102.57610 | 40966 ft | 537 kts | 115° |
| 2026-05-05 18:49 | 41.68785 | 102.66953 | 40996 ft | 535 kts | 115° |
| 2026-05-05 18:50 | 41.66192 | 102.76274 | 40994 ft | 534 kts | 115° |
| 2026-05-05 18:50 | 41.63613 | 102.85503 | 40996 ft | 533 kts | 115° |
| 2026-05-05 18:51 | 41.61014 | 102.94781 | 40991 ft | 533 kts | 115° |
| 2026-05-05 18:51 | 41.58406 | 103.04044 | 41005 ft | 532 kts | 115° |
| 2026-05-05 18:52 | 41.55783 | 103.13292 | 41000 ft | 533 kts | 115° |
| 2026-05-05 18:52 | 41.53167 | 103.22482 | 41000 ft | 533 kts | 115° |
| 2026-05-05 18:53 | 41.50524 | 103.31739 | 41001 ft | 535 kts | 116° |
| 2026-05-05 18:53 | 41.47868 | 103.41013 | 40992 ft | 535 kts | 116° |
| 2026-05-05 18:54 | 41.45202 | 103.50292 | 40996 ft | 536 kts | 116° |
| 2026-05-05 18:54 | 41.42543 | 103.59509 | 41001 ft | 537 kts | 116° |
| 2026-05-05 18:55 | 41.39853 | 103.68801 | 40990 ft | 538 kts | 116° |
| 2026-05-05 18:55 | 41.37151 | 103.78101 | 40997 ft | 539 kts | 116° |
| 2026-05-05 18:56 | 41.34444 | 103.87389 | 40978 ft | 538 kts | 116° |
| 2026-05-05 18:56 | 41.31751 | 103.96593 | 40985 ft | 537 kts | 116° |
| 2026-05-05 18:57 | 41.29040 | 104.05825 | 40994 ft | 536 kts | 116° |
| 2026-05-05 18:57 | 41.26323 | 104.15044 | 40995 ft | 535 kts | 116° |
| 2026-05-05 18:58 | 41.23603 | 104.24242 | 40994 ft | 535 kts | 116° |
| 2026-05-05 18:58 | 41.20875 | 104.33430 | 40994 ft | 535 kts | 116° |
| 2026-05-05 18:59 | 41.18159 | 104.42553 | 40995 ft | 535 kts | 116° |
| 2026-05-05 18:59 | 41.15412 | 104.51745 | 40987 ft | 536 kts | 117° |
| 2026-05-05 19:00 | 41.12654 | 104.60944 | 40994 ft | 537 kts | 117° |
| 2026-05-05 19:00 | 41.09889 | 104.70136 | 40993 ft | 537 kts | 117° |
| 2026-05-05 19:01 | 41.06953 | 104.79217 | 40982 ft | 536 kts | 120° |
| 2026-05-05 19:01 | 41.03878 | 104.88129 | 40983 ft | 535 kts | 120° |
| 2026-05-05 19:02 | 41.00783 | 104.97105 | 40980 ft | 536 kts | 120° |
| 2026-05-05 19:02 | 40.97713 | 105.06106 | 40973 ft | 537 kts | 119° |
| 2026-05-05 19:03 | 40.94650 | 105.15109 | 40978 ft | 537 kts | 120° |
| 2026-05-05 19:03 | 40.91598 | 105.24051 | 40971 ft | 537 kts | 120° |
| 2026-05-05 19:04 | 40.88514 | 105.33047 | 40961 ft | 538 kts | 119° |
| 2026-05-05 19:04 | 40.85420 | 105.42040 | 40963 ft | 538 kts | 120° |
| 2026-05-05 19:05 | 40.82313 | 105.51039 | 40955 ft | 539 kts | 120° |
| 2026-05-05 19:05 | 40.79197 | 105.60038 | 40948 ft | 539 kts | 120° |
| 2026-05-05 19:06 | 40.76091 | 105.68978 | 40932 ft | 540 kts | 119° |
| 2026-05-05 19:06 | 40.72953 | 105.77985 | 40936 ft | 541 kts | 120° |
| 2026-05-05 19:07 | 40.70337 | 105.85471 | 40927 ft | 541 kts | 120° |
| 2026-05-05 19:07 | 40.66648 | 105.95996 | 40915 ft | 541 kts | 120° |
| 2026-05-05 19:08 | 40.63507 | 106.04926 | 40898 ft | 541 kts | 120° |
| 2026-05-05 19:08 | 40.60339 | 106.13904 | 40895 ft | 540 kts | 120° |
| 2026-05-05 19:09 | 40.57169 | 106.22858 | 40893 ft | 540 kts | 120° |
| 2026-05-05 19:09 | 40.53993 | 106.31805 | 40881 ft | 539 kts | 120° |
| 2026-05-05 19:10 | 40.50816 | 106.40721 | 40880 ft | 538 kts | 120° |
| 2026-05-05 19:10 | 40.47657 | 106.49562 | 40879 ft | 538 kts | 120° |
| 2026-05-05 19:11 | 40.44468 | 106.58461 | 40886 ft | 538 kts | 120° |
| 2026-05-05 19:11 | 40.41274 | 106.67346 | 40888 ft | 538 kts | 120° |
| 2026-05-05 19:12 | 40.38073 | 106.76225 | 40882 ft | 538 kts | 120° |
| 2026-05-05 19:12 | 40.34867 | 106.85095 | 40872 ft | 539 kts | 120° |
| 2026-05-05 19:13 | 40.32141 | 106.94174 | 40871 ft | 545 kts | 104° |
| 2026-05-05 19:13 | 40.31596 | 107.04074 | 40885 ft | 547 kts | 83° |
| 2026-05-05 19:14 | 40.32835 | 107.13873 | 40879 ft | 546 kts | 78° |
| 2026-05-05 19:14 | 40.34194 | 107.23673 | 40880 ft | 547 kts | 78° |
| 2026-05-05 19:15 | 40.35450 | 107.33446 | 40870 ft | 548 kts | 79° |
| 2026-05-05 19:15 | 40.36656 | 107.43316 | 40892 ft | 548 kts | 79° |
| 2026-05-05 19:16 | 40.37850 | 107.53188 | 40877 ft | 548 kts | 79° |
| 2026-05-05 19:16 | 40.39045 | 107.63069 | 40861 ft | 548 kts | 79° |
| 2026-05-05 19:17 | 40.40224 | 107.72873 | 40896 ft | 548 kts | 79° |
| 2026-05-05 19:17 | 40.41403 | 107.82749 | 40866 ft | 548 kts | 79° |
| 2026-05-05 19:18 | 40.42575 | 107.92630 | 40853 ft | 548 kts | 79° |
| 2026-05-05 19:18 | 40.43734 | 108.02513 | 40852 ft | 548 kts | 79° |
| 2026-05-05 19:19 | 40.44866 | 108.12335 | 40851 ft | 547 kts | 79° |
| 2026-05-05 19:19 | 40.45995 | 108.22216 | 40840 ft | 547 kts | 79° |
| 2026-05-05 19:20 | 40.47116 | 108.32096 | 40852 ft | 547 kts | 79° |
| 2026-05-05 19:20 | 40.48232 | 108.41987 | 40850 ft | 547 kts | 79° |
| 2026-05-05 19:21 | 40.49339 | 108.51879 | 40851 ft | 548 kts | 79° |
| 2026-05-05 19:21 | 40.50432 | 108.61729 | 40840 ft | 549 kts | 80° |
| 2026-05-05 19:22 | 40.51525 | 108.71660 | 40828 ft | 550 kts | 80° |
| 2026-05-05 19:22 | 40.52611 | 108.81609 | 40831 ft | 550 kts | 80° |
| 2026-05-05 19:23 | 40.53689 | 108.91565 | 40824 ft | 550 kts | 80° |
| 2026-05-05 19:23 | 40.54752 | 109.01463 | 40816 ft | 550 kts | 80° |
| 2026-05-05 19:24 | 40.55814 | 109.11432 | 40817 ft | 550 kts | 80° |
| 2026-05-05 19:24 | 40.56866 | 109.21391 | 40809 ft | 549 kts | 80° |
| 2026-05-05 19:25 | 40.57909 | 109.31350 | 40824 ft | 550 kts | 80° |
| 2026-05-05 19:25 | 40.58936 | 109.41247 | 40810 ft | 550 kts | 80° |
| 2026-05-05 19:26 | 40.59962 | 109.51211 | 40807 ft | 549 kts | 80° |
| 2026-05-05 19:26 | 40.60977 | 109.61158 | 40820 ft | 548 kts | 80° |
| 2026-05-05 19:27 | 40.61984 | 109.71106 | 40812 ft | 548 kts | 80° |
| 2026-05-05 19:27 | 40.62975 | 109.80984 | 40818 ft | 548 kts | 80° |
| 2026-05-05 19:28 | 40.63964 | 109.90932 | 40813 ft | 548 kts | 80° |
| 2026-05-05 19:28 | 40.64773 | 110.00914 | 40806 ft | 550 kts | 87° |
| 2026-05-05 19:29 | 40.64724 | 110.11001 | 40803 ft | 551 kts | 90° |
| 2026-05-05 19:29 | 40.64585 | 110.21103 | 40801 ft | 552 kts | 90° |
| 2026-05-05 19:30 | 40.64505 | 110.31143 | 40816 ft | 552 kts | 89° |
| 2026-05-05 19:30 | 40.64440 | 110.41265 | 40795 ft | 553 kts | 89° |
| 2026-05-05 19:31 | 40.64357 | 110.51389 | 40796 ft | 553 kts | 89° |
| 2026-05-05 19:31 | 40.64282 | 110.59800 | 40802 ft | 553 kts | 89° |
| 2026-05-05 19:32 | 40.64167 | 110.71571 | 40819 ft | 553 kts | 89° |
| 2026-05-05 19:32 | 40.64066 | 110.81689 | 40794 ft | 551 kts | 89° |
| 2026-05-05 19:33 | 40.63945 | 110.91751 | 40785 ft | 549 kts | 90° |
| 2026-05-05 19:33 | 40.63841 | 111.00098 | 40791 ft | 548 kts | 90° |
| 2026-05-05 19:34 | 40.63691 | 111.11744 | 40818 ft | 547 kts | 90° |
| 2026-05-05 19:35 | 40.63478 | 111.26756 | 40795 ft | 547 kts | 90° |
| 2026-05-05 19:35 | 40.63353 | 111.35076 | 40785 ft | 547 kts | 90° |
| 2026-05-05 19:36 | 40.63195 | 111.45084 | 40776 ft | 547 kts | 90° |
| 2026-05-05 19:36 | 40.63000 | 111.56737 | 40780 ft | 548 kts | 90° |
| 2026-05-05 19:37 | 40.62852 | 111.65149 | 40786 ft | 549 kts | 90° |
| 2026-05-05 19:37 | 40.62669 | 111.75128 | 40789 ft | 550 kts | 90° |
| 2026-05-05 19:38 | 40.62476 | 111.85190 | 40787 ft | 550 kts | 90° |
| 2026-05-05 19:38 | 40.62345 | 111.95251 | 40795 ft | 550 kts | 89° |
| 2026-05-05 19:39 | 40.62092 | 112.05300 | 40788 ft | 550 kts | 91° |
| 2026-05-05 19:39 | 40.61818 | 112.15282 | 40787 ft | 549 kts | 90° |
| 2026-05-05 19:40 | 40.61601 | 112.25314 | 40786 ft | 548 kts | 90° |
| 2026-05-05 19:40 | 40.61366 | 112.35343 | 40790 ft | 548 kts | 90° |
| 2026-05-05 19:41 | 40.61113 | 112.45362 | 40789 ft | 547 kts | 91° |
| 2026-05-05 19:41 | 40.60804 | 112.55282 | 40799 ft | 546 kts | 93° |
| 2026-05-05 19:42 | 40.60179 | 112.65245 | 40800 ft | 546 kts | 94° |
| 2026-05-05 19:42 | 40.59563 | 112.75193 | 40802 ft | 546 kts | 94° |
| 2026-05-05 19:43 | 40.58753 | 112.85122 | 40810 ft | 546 kts | 95° |
| 2026-05-05 19:43 | 40.58069 | 112.95004 | 40804 ft | 546 kts | 94° |
| 2026-05-05 19:44 | 40.57440 | 113.04959 | 40803 ft | 546 kts | 94° |
| 2026-05-05 19:44 | 40.56784 | 113.14902 | 40800 ft | 546 kts | 94° |
| 2026-05-05 19:45 | 40.56101 | 113.24838 | 40793 ft | 546 kts | 94° |
| 2026-05-05 19:45 | 40.55409 | 113.34705 | 40800 ft | 546 kts | 94° |
| 2026-05-05 19:46 | 40.54706 | 113.44648 | 40810 ft | 546 kts | 94° |
| 2026-05-05 19:46 | 40.53994 | 113.54596 | 40787 ft | 547 kts | 94° |
| 2026-05-05 19:47 | 40.53275 | 113.64555 | 40799 ft | 547 kts | 94° |
| 2026-05-05 19:47 | 40.52548 | 113.74460 | 40801 ft | 549 kts | 94° |
| 2026-05-05 19:48 | 40.51809 | 113.84451 | 40775 ft | 549 kts | 95° |
| 2026-05-05 19:48 | 40.51062 | 113.94438 | 40772 ft | 549 kts | 95° |
| 2026-05-05 19:49 | 40.50362 | 114.04423 | 40775 ft | 548 kts | 92° |
| 2026-05-05 19:49 | 40.49958 | 114.14419 | 40751 ft | 547 kts | 91° |
| 2026-05-05 19:50 | 40.49609 | 114.24330 | 40760 ft | 546 kts | 91° |
| 2026-05-05 19:50 | 40.49201 | 114.34298 | 40749 ft | 546 kts | 91° |
| 2026-05-05 19:51 | 40.48752 | 114.44254 | 40739 ft | 545 kts | 92° |
| 2026-05-05 19:51 | 40.48292 | 114.54183 | 40734 ft | 544 kts | 92° |
| 2026-05-05 19:52 | 40.47831 | 114.64025 | 40733 ft | 543 kts | 92° |
| 2026-05-05 19:52 | 40.47361 | 114.73926 | 40730 ft | 543 kts | 92° |
| 2026-05-05 19:53 | 40.46885 | 114.83819 | 40725 ft | 543 kts | 92° |
| 2026-05-05 19:53 | 40.46398 | 114.93707 | 40726 ft | 542 kts | 92° |
| 2026-05-05 19:54 | 40.45902 | 115.03588 | 40717 ft | 543 kts | 92° |
| 2026-05-05 19:54 | 40.45403 | 115.13408 | 40728 ft | 543 kts | 92° |
| 2026-05-05 19:55 | 40.44892 | 115.23301 | 40724 ft | 543 kts | 92° |
| 2026-05-05 19:55 | 40.44372 | 115.33196 | 40724 ft | 543 kts | 92° |
| 2026-05-05 19:56 | 40.43843 | 115.43094 | 40715 ft | 544 kts | 92° |
| 2026-05-05 19:56 | 40.43310 | 115.52924 | 40719 ft | 544 kts | 92° |
| 2026-05-05 19:57 | 40.42610 | 115.62816 | 40725 ft | 545 kts | 95° |
| 2026-05-05 19:57 | 40.41761 | 115.72703 | 40717 ft | 545 kts | 94° |
| 2026-05-05 19:58 | 40.40920 | 115.82579 | 40714 ft | 545 kts | 94° |
| 2026-05-05 19:58 | 40.40108 | 115.92387 | 40714 ft | 544 kts | 94° |
| 2026-05-05 19:59 | 40.39292 | 116.02265 | 40725 ft | 545 kts | 94° |
| 2026-05-05 19:59 | 40.38465 | 116.12153 | 40716 ft | 545 kts | 95° |
| 2026-05-05 20:00 | 40.37625 | 116.22029 | 40702 ft | 545 kts | 95° |
| 2026-05-05 20:00 | 40.36783 | 116.31823 | 40694 ft | 544 kts | 94° |
| 2026-05-05 20:01 | 40.35932 | 116.41673 | 40700 ft | 544 kts | 95° |
| 2026-05-05 20:01 | 40.35070 | 116.51531 | 40696 ft | 545 kts | 95° |
| 2026-05-05 20:02 | 40.34159 | 116.61385 | 40670 ft | 543 kts | 100° |
| 2026-05-05 20:02 | 40.33022 | 116.66027 | 40692 ft | 543 kts | 118° |
| 2026-05-05 20:02 | 40.30964 | 116.70120 | 40696 ft | 536 kts | 136° |
| 2026-05-05 20:02 | 40.28208 | 116.73345 | 40709 ft | 529 kts | 151° |
| 2026-05-05 20:03 | 40.25064 | 116.75781 | 40698 ft | 524 kts | 162° |
| 2026-05-05 20:03 | 40.21670 | 116.77344 | 40696 ft | 510 kts | 178° |
| 2026-05-05 20:03 | 40.18186 | 116.78030 | 40692 ft | 506 kts | 180° |
| 2026-05-05 20:04 | 40.11157 | 116.79221 | 40699 ft | 513 kts | 180° |
| 2026-05-05 20:04 | 40.04163 | 116.80543 | 40678 ft | 506 kts | 179° |
| 2026-05-05 20:05 | 39.97232 | 116.81941 | 40681 ft | 504 kts | 179° |
| 2026-05-05 20:05 | 39.90307 | 116.83331 | 40680 ft | 503 kts | 179° |
| 2026-05-05 20:06 | 39.83382 | 116.84684 | 40680 ft | 501 kts | 182° |
| 2026-05-05 20:06 | 39.76563 | 116.84905 | 40665 ft | 488 kts | 193° |
| 2026-05-05 20:07 | 39.69889 | 116.83828 | 40693 ft | 483 kts | 197° |
| 2026-05-05 20:07 | 39.63206 | 116.82659 | 40692 ft | 486 kts | 196° |
| 2026-05-05 20:08 | 39.56489 | 116.81526 | 40673 ft | 487 kts | 196° |
| 2026-05-05 20:08 | 39.49756 | 116.80418 | 40693 ft | 489 kts | 195° |
| 2026-05-05 20:09 | 39.43044 | 116.79319 | 40692 ft | 490 kts | 195° |
| 2026-05-05 20:09 | 39.36280 | 116.78213 | 40682 ft | 490 kts | 195° |
| 2026-05-05 20:10 | 39.29519 | 116.77109 | 40695 ft | 490 kts | 195° |
| 2026-05-05 20:10 | 39.22754 | 116.76005 | 40695 ft | 490 kts | 195° |
| 2026-05-05 20:11 | 39.15993 | 116.74903 | 40683 ft | 489 kts | 195° |
| 2026-05-05 20:11 | 39.09291 | 116.73814 | 40687 ft | 489 kts | 195° |
| 2026-05-05 20:12 | 39.02551 | 116.72719 | 40691 ft | 488 kts | 195° |
| 2026-05-05 20:12 | 38.95815 | 116.71628 | 40690 ft | 488 kts | 195° |
| 2026-05-05 20:13 | 38.89081 | 116.70539 | 40688 ft | 488 kts | 195° |
| 2026-05-05 20:13 | 38.82394 | 116.69459 | 40691 ft | 488 kts | 195° |
| 2026-05-05 20:14 | 38.75664 | 116.68375 | 40688 ft | 488 kts | 195° |
| 2026-05-05 20:14 | 38.68927 | 116.67291 | 40693 ft | 488 kts | 195° |
| 2026-05-05 20:15 | 38.62182 | 116.66227 | 40693 ft | 490 kts | 193° |
| 2026-05-05 20:15 | 38.55377 | 116.65441 | 40685 ft | 492 kts | 192° |
| 2026-05-05 20:16 | 38.48600 | 116.64725 | 40698 ft | 492 kts | 192° |
| 2026-05-05 20:16 | 38.41781 | 116.63953 | 40698 ft | 492 kts | 192° |
| 2026-05-05 20:17 | 38.34955 | 116.63169 | 40694 ft | 493 kts | 192° |
| 2026-05-05 20:17 | 38.28025 | 116.63339 | 40701 ft | 505 kts | 179° |
| 2026-05-05 20:18 | 38.21149 | 116.65287 | 40699 ft | 515 kts | 168° |
| 2026-05-05 20:18 | 38.14299 | 116.67983 | 40689 ft | 515 kts | 168° |
| 2026-05-05 20:19 | 38.07435 | 116.70548 | 40710 ft | 515 kts | 169° |
| 2026-05-05 20:19 | 38.00573 | 116.73161 | 40705 ft | 515 kts | 168° |
| 2026-05-05 20:20 | 37.93713 | 116.75790 | 40711 ft | 515 kts | 168° |
| 2026-05-05 20:20 | 37.86902 | 116.78389 | 40717 ft | 515 kts | 168° |
| 2026-05-05 20:21 | 37.80046 | 116.80994 | 40715 ft | 514 kts | 168° |
| 2026-05-05 20:21 | 37.73197 | 116.83588 | 40721 ft | 514 kts | 168° |
| 2026-05-05 20:22 | 37.66353 | 116.86178 | 40710 ft | 513 kts | 168° |
| 2026-05-05 20:22 | 37.59557 | 116.88743 | 40725 ft | 513 kts | 168° |
| 2026-05-05 20:23 | 37.52718 | 116.91321 | 40727 ft | 513 kts | 168° |
| 2026-05-05 20:23 | 37.45872 | 116.93896 | 40716 ft | 513 kts | 168° |
| 2026-05-05 20:24 | 37.39029 | 116.96466 | 40732 ft | 513 kts | 168° |
| 2026-05-05 20:24 | 37.32181 | 116.99033 | 40739 ft | 514 kts | 168° |
| 2026-05-05 20:25 | 37.25429 | 117.01866 | 40739 ft | 517 kts | 164° |
| 2026-05-05 20:25 | 37.18696 | 117.05044 | 40737 ft | 517 kts | 164° |
| 2026-05-05 20:26 | 37.11952 | 117.08209 | 40746 ft | 517 kts | 164° |
| 2026-05-05 20:26 | 37.05249 | 117.11339 | 40755 ft | 518 kts | 164° |
| 2026-05-05 20:27 | 36.98498 | 117.14486 | 40732 ft | 518 kts | 164° |
| 2026-05-05 20:27 | 36.91745 | 117.17631 | 40753 ft | 518 kts | 164° |
| 2026-05-05 20:28 | 36.84922 | 117.20419 | 40757 ft | 512 kts | 173° |
| 2026-05-05 20:28 | 36.77926 | 117.21633 | 40761 ft | 504 kts | 184° |
| 2026-05-05 20:29 | 36.71001 | 117.21589 | 40747 ft | 501 kts | 187° |
| 2026-05-05 20:29 | 36.64026 | 117.21463 | 40777 ft | 502 kts | 187° |
| 2026-05-05 20:30 | 36.57024 | 117.21402 | 40795 ft | 504 kts | 186° |
| 2026-05-05 20:30 | 36.49999 | 117.21359 | 40781 ft | 506 kts | 186° |
| 2026-05-05 20:31 | 36.42938 | 117.21598 | 40795 ft | 513 kts | 179° |
| 2026-05-05 20:31 | 36.35938 | 117.23326 | 40806 ft | 521 kts | 168° |
| 2026-05-05 20:32 | 36.29012 | 117.25986 | 40797 ft | 521 kts | 167° |
| 2026-05-05 20:32 | 36.22104 | 117.28638 | 40813 ft | 519 kts | 167° |
| 2026-05-05 20:33 | 36.15193 | 117.31217 | 40824 ft | 518 kts | 168° |
| 2026-05-05 20:33 | 36.08337 | 117.33751 | 40828 ft | 518 kts | 168° |
| 2026-05-05 20:34 | 36.01444 | 117.36302 | 40820 ft | 517 kts | 168° |
| 2026-05-05 20:34 | 35.94555 | 117.38865 | 40832 ft | 517 kts | 167° |
| 2026-05-05 20:35 | 35.87670 | 117.41448 | 40835 ft | 517 kts | 167° |
| 2026-05-05 20:35 | 35.80825 | 117.44014 | 40817 ft | 518 kts | 167° |
| 2026-05-05 20:36 | 35.73928 | 117.46590 | 40832 ft | 518 kts | 167° |
| 2026-05-05 20:36 | 35.67028 | 117.49159 | 40848 ft | 518 kts | 167° |
| 2026-05-05 20:37 | 35.60124 | 117.51728 | 40848 ft | 519 kts | 167° |
| 2026-05-05 20:37 | 35.53208 | 117.54296 | 40848 ft | 519 kts | 167° |
| 2026-05-05 20:38 | 35.46342 | 117.56840 | 40851 ft | 519 kts | 167° |
| 2026-05-05 20:38 | 35.39422 | 117.59400 | 40852 ft | 519 kts | 167° |
| 2026-05-05 20:39 | 35.32511 | 117.61953 | 40837 ft | 519 kts | 167° |
| 2026-05-05 20:39 | 35.25599 | 117.64501 | 40852 ft | 518 kts | 167° |
| 2026-05-05 20:40 | 35.18689 | 117.67044 | 40860 ft | 518 kts | 167° |
| 2026-05-05 20:40 | 35.11828 | 117.69565 | 40868 ft | 519 kts | 167° |
| 2026-05-05 20:41 | 35.04915 | 117.72098 | 40863 ft | 519 kts | 167° |
| 2026-05-05 20:41 | 34.97995 | 117.74619 | 40871 ft | 519 kts | 167° |
| 2026-05-05 20:42 | 34.91076 | 117.77136 | 40866 ft | 519 kts | 167° |
| 2026-05-05 20:42 | 34.84145 | 117.79655 | 40875 ft | 520 kts | 167° |
| 2026-05-05 20:43 | 34.77255 | 117.82112 | 40870 ft | 520 kts | 168° |
| 2026-05-05 20:43 | 34.70310 | 117.84603 | 40873 ft | 520 kts | 167° |
| 2026-05-05 20:44 | 34.63362 | 117.87101 | 40870 ft | 521 kts | 167° |
| 2026-05-05 20:44 | 34.56404 | 117.89595 | 40860 ft | 521 kts | 167° |
| 2026-05-05 20:45 | 34.46007 | 117.93312 | 40872 ft | 522 kts | 167° |
| 2026-05-05 20:45 | 34.39040 | 117.95798 | 40872 ft | 522 kts | 167° |
| 2026-05-05 20:46 | 34.32070 | 117.98280 | 40855 ft | 522 kts | 167° |
| 2026-05-05 20:46 | 34.25103 | 118.00768 | 40870 ft | 522 kts | 167° |
| 2026-05-05 20:47 | 34.18195 | 118.03303 | 40876 ft | 522 kts | 167° |
| 2026-05-05 20:47 | 34.11239 | 118.05861 | 40877 ft | 523 kts | 167° |
| 2026-05-05 20:48 | 34.04279 | 118.08404 | 40868 ft | 523 kts | 167° |
| 2026-05-05 20:48 | 33.97319 | 118.10943 | 40879 ft | 523 kts | 167° |
| 2026-05-05 20:49 | 33.90403 | 118.13476 | 40876 ft | 523 kts | 167° |
| 2026-05-05 20:49 | 33.83481 | 118.16218 | 40875 ft | 526 kts | 160° |
| 2026-05-05 20:50 | 33.76957 | 118.20259 | 40868 ft | 530 kts | 148° |
| 2026-05-05 20:50 | 33.70897 | 118.25317 | 40878 ft | 531 kts | 146° |
| 2026-05-05 20:51 | 33.64856 | 118.30429 | 40876 ft | 531 kts | 146° |
| 2026-05-05 20:51 | 33.58826 | 118.35457 | 40881 ft | 532 kts | 147° |
| 2026-05-05 20:52 | 33.52733 | 118.40488 | 40867 ft | 532 kts | 147° |
| 2026-05-05 20:52 | 33.46640 | 118.45511 | 40879 ft | 531 kts | 147° |
| 2026-05-05 20:53 | 33.40560 | 118.50520 | 40882 ft | 530 kts | 147° |
| 2026-05-05 20:53 | 33.34524 | 118.55484 | 40887 ft | 530 kts | 147° |
| 2026-05-05 20:54 | 33.28451 | 118.60472 | 40887 ft | 529 kts | 147° |
| 2026-05-05 20:54 | 33.22379 | 118.65450 | 40875 ft | 529 kts | 147° |
| 2026-05-05 20:55 | 33.16323 | 118.70440 | 40900 ft | 529 kts | 146° |
| 2026-05-05 20:55 | 33.10335 | 118.75425 | 40893 ft | 528 kts | 146° |
| 2026-05-05 20:56 | 33.04305 | 118.80434 | 40896 ft | 528 kts | 146° |
| 2026-05-05 20:56 | 32.98272 | 118.85427 | 40902 ft | 528 kts | 146° |
| 2026-05-05 20:57 | 32.92237 | 118.90411 | 40903 ft | 528 kts | 146° |
| 2026-05-05 20:57 | 32.86238 | 118.95360 | 40905 ft | 528 kts | 146° |
| 2026-05-05 20:58 | 32.80209 | 119.00345 | 40906 ft | 528 kts | 146° |
| 2026-05-05 20:58 | 32.74193 | 119.05345 | 40904 ft | 527 kts | 146° |
| 2026-05-05 20:59 | 32.68187 | 119.10331 | 40906 ft | 527 kts | 146° |
| 2026-05-05 20:59 | 32.62179 | 119.15305 | 40902 ft | 526 kts | 146° |
| 2026-05-05 21:00 | 32.56219 | 119.20229 | 40913 ft | 526 kts | 146° |
| 2026-05-05 21:00 | 32.50220 | 119.25176 | 40927 ft | 525 kts | 146° |
| 2026-05-05 21:01 | 32.44222 | 119.30116 | 40915 ft | 525 kts | 146° |
| 2026-05-05 21:01 | 32.38228 | 119.35043 | 40915 ft | 524 kts | 146° |
| 2026-05-05 21:02 | 32.32284 | 119.39922 | 40918 ft | 523 kts | 146° |
| 2026-05-05 21:02 | 32.26312 | 119.44815 | 40924 ft | 522 kts | 146° |
| 2026-05-05 21:03 | 32.23318 | 119.47266 | 40454 ft | 527 kts | 145° |
| 2026-05-05 21:03 | 32.20302 | 119.49732 | 39785 ft | 527 kts | 145° |
| 2026-05-05 21:03 | 32.17287 | 119.52196 | 39119 ft | 527 kts | 144° |
| 2026-05-05 21:03 | 32.14271 | 119.54658 | 38386 ft | 529 kts | 143° |
| 2026-05-05 21:04 | 32.11241 | 119.57131 | 37517 ft | 530 kts | 143° |
| 2026-05-05 21:04 | 32.08223 | 119.59592 | 36976 ft | 525 kts | 143° |
| 2026-05-05 21:04 | 32.05274 | 119.61994 | 36474 ft | 520 kts | 143° |
| 2026-05-05 21:04 | 32.02312 | 119.64405 | 35970 ft | 515 kts | 143° |
| 2026-05-05 21:05 | 31.99377 | 119.66792 | 35489 ft | 510 kts | 142° |
| 2026-05-05 21:05 | 31.96581 | 119.69317 | 34989 ft | 503 kts | 135° |
| 2026-05-05 21:05 | 31.94073 | 119.72147 | 34506 ft | 496 kts | 128° |
| 2026-05-05 21:05 | 31.91803 | 119.75169 | 34018 ft | 490 kts | 123° |
| 2026-05-05 21:06 | 31.89820 | 119.78386 | 33463 ft | 482 kts | 118° |
| 2026-05-05 21:06 | 31.87966 | 119.81650 | 32948 ft | 478 kts | 118° |
| 2026-05-05 21:06 | 31.86157 | 119.84846 | 32475 ft | 474 kts | 118° |
| 2026-05-05 21:06 | 31.84332 | 119.88055 | 31981 ft | 470 kts | 118° |
| 2026-05-05 21:07 | 31.82516 | 119.91230 | 31498 ft | 466 kts | 118° |
| 2026-05-05 21:07 | 31.80705 | 119.94375 | 31024 ft | 463 kts | 119° |
| 2026-05-05 21:07 | 31.78905 | 119.97490 | 30555 ft | 459 kts | 120° |
| 2026-05-05 21:07 | 31.77115 | 120.00580 | 30084 ft | 456 kts | 120° |
| 2026-05-05 21:08 | 31.75334 | 120.03652 | 29539 ft | 453 kts | 120° |
| 2026-05-05 21:08 | 31.73566 | 120.06699 | 28978 ft | 450 kts | 120° |
| 2026-05-05 21:08 | 31.71832 | 120.09686 | 28457 ft | 447 kts | 121° |
| 2026-05-05 21:08 | 31.70088 | 120.12686 | 27969 ft | 443 kts | 121° |
| 2026-05-05 21:09 | 31.68357 | 120.15664 | 27460 ft | 440 kts | 121° |
| 2026-05-05 21:09 | 31.66640 | 120.18617 | 26980 ft | 436 kts | 121° |
| 2026-05-05 21:09 | 31.64934 | 120.21549 | 26485 ft | 433 kts | 121° |
| 2026-05-05 21:09 | 31.63240 | 120.24457 | 26029 ft | 430 kts | 121° |
| 2026-05-05 21:10 | 31.61557 | 120.27346 | 25569 ft | 428 kts | 121° |
| 2026-05-05 21:10 | 31.59881 | 120.30217 | 25118 ft | 425 kts | 122° |
| 2026-05-05 21:10 | 31.58363 | 120.33164 | 24654 ft | 418 kts | 111° |
| 2026-05-05 21:10 | 31.57359 | 120.36331 | 24217 ft | 412 kts | 105° |
| 2026-05-05 21:11 | 31.56499 | 120.39484 | 23767 ft | 411 kts | 104° |
| 2026-05-05 21:11 | 31.55656 | 120.42597 | 23264 ft | 388 kts | 105° |
| 2026-05-05 21:11 | 31.54832 | 120.45563 | 22834 ft | 381 kts | 105° |
| 2026-05-05 21:11 | 31.53999 | 120.48499 | 22416 ft | 378 kts | 105° |
| 2026-05-05 21:12 | 31.53158 | 120.51410 | 22007 ft | 376 kts | 106° |
| 2026-05-05 21:12 | 31.52314 | 120.54299 | 21606 ft | 374 kts | 106° |
| 2026-05-05 21:12 | 31.51470 | 120.57169 | 21212 ft | 371 kts | 106° |
| 2026-05-05 21:12 | 31.50629 | 120.60019 | 20813 ft | 369 kts | 106° |
| 2026-05-05 21:13 | 31.49804 | 120.62811 | 20429 ft | 367 kts | 106° |
| 2026-05-05 21:13 | 31.48970 | 120.65629 | 20030 ft | 365 kts | 106° |
| 2026-05-05 21:13 | 31.48141 | 120.68431 | 19633 ft | 363 kts | 106° |
| 2026-05-05 21:13 | 31.47315 | 120.71223 | 19239 ft | 362 kts | 106° |
| 2026-05-05 21:14 | 31.46490 | 120.74005 | 18851 ft | 361 kts | 107° |
| 2026-05-05 21:14 | 31.45667 | 120.76778 | 18444 ft | 360 kts | 107° |
| 2026-05-05 21:14 | 31.44863 | 120.79474 | 17978 ft | 340 kts | 107° |
| 2026-05-05 21:14 | 31.44084 | 120.81999 | 17576 ft | 320 kts | 107° |
| 2026-05-05 21:15 | 31.43336 | 120.84391 | 17220 ft | 307 kts | 107° |
| 2026-05-05 21:15 | 31.42599 | 120.86764 | 16907 ft | 325 kts | 108° |
| 2026-05-05 21:15 | 31.41789 | 120.89381 | 16541 ft | 357 kts | 108° |
| 2026-05-05 21:15 | 31.40929 | 120.92148 | 16107 ft | 363 kts | 108° |
| 2026-05-05 21:16 | 31.40402 | 120.94964 | 15666 ft | 351 kts | 88° |
| 2026-05-05 21:16 | 31.40759 | 120.97732 | 15371 ft | 340 kts | 69° |
| 2026-05-05 21:16 | 31.41553 | 121.00323 | 15084 ft | 338 kts | 67° |
| 2026-05-05 21:16 | 31.42363 | 121.02910 | 14774 ft | 338 kts | 67° |
| 2026-05-05 21:17 | 31.43156 | 121.05505 | 14479 ft | 339 kts | 68° |
| 2026-05-05 21:17 | 31.43940 | 121.08112 | 14182 ft | 340 kts | 68° |
| 2026-05-05 21:17 | 31.44692 | 121.10691 | 13870 ft | 336 kts | 72° |
| 2026-05-05 21:17 | 31.44919 | 121.13402 | 13526 ft | 336 kts | 95° |
| 2026-05-05 21:18 | 31.44555 | 121.16090 | 13237 ft | 337 kts | 97° |
| 2026-05-05 21:18 | 31.44218 | 121.18816 | 12929 ft | 339 kts | 96° |
| 2026-05-05 21:18 | 31.43913 | 121.21553 | 12621 ft | 339 kts | 96° |
| 2026-05-05 21:18 | 31.43617 | 121.24294 | 12315 ft | 339 kts | 96° |
| 2026-05-05 21:19 | 31.43325 | 121.27015 | 12010 ft | 334 kts | 96° |
| 2026-05-05 21:19 | 31.43036 | 121.29692 | 11707 ft | 329 kts | 97° |
| 2026-05-05 21:19 | 31.42750 | 121.32332 | 11420 ft | 326 kts | 97° |
| 2026-05-05 21:19 | 31.42464 | 121.34970 | 11137 ft | 326 kts | 97° |
| 2026-05-05 21:20 | 31.42177 | 121.37603 | 10848 ft | 326 kts | 97° |
| 2026-05-05 21:20 | 31.41895 | 121.40182 | 10575 ft | 322 kts | 97° |
| 2026-05-05 21:20 | 31.41584 | 121.42666 | 10250 ft | 296 kts | 105° |
| 2026-05-05 21:20 | 31.40678 | 121.44771 | 10010 ft | 289 kts | 133° |
| 2026-05-05 21:21 | 31.39162 | 121.46263 | 9755 ft | 283 kts | 152° |
| 2026-05-05 21:21 | 31.37370 | 121.47153 | 9487 ft | 278 kts | 165° |
| 2026-05-05 21:21 | 31.35534 | 121.47828 | 9241 ft | 276 kts | 165° |
| 2026-05-05 21:21 | 31.33708 | 121.48495 | 8983 ft | 274 kts | 165° |
| 2026-05-05 21:22 | 31.31892 | 121.49170 | 8747 ft | 273 kts | 163° |
| 2026-05-05 21:22 | 31.30087 | 121.49851 | 8501 ft | 272 kts | 163° |
| 2026-05-05 21:22 | 31.28313 | 121.50525 | 8268 ft | 272 kts | 163° |
| 2026-05-05 21:22 | 31.26517 | 121.51209 | 8030 ft | 271 kts | 163° |
| 2026-05-05 21:23 | 31.24854 | 121.52156 | 7763 ft | 268 kts | 140° |
| 2026-05-05 21:23 | 31.23782 | 121.53928 | 7557 ft | 272 kts | 110° |
| 2026-05-05 21:23 | 31.23543 | 121.56117 | 7322 ft | 275 kts | 84° |
| 2026-05-05 21:23 | 31.24005 | 121.58249 | 7072 ft | 269 kts | 71° |
| 2026-05-05 21:24 | 31.24856 | 121.60160 | 6829 ft | 267 kts | 47° |
| 2026-05-05 21:24 | 31.26403 | 121.61342 | 6613 ft | 270 kts | 18° |
| 2026-05-05 21:24 | 31.28247 | 121.61540 | 6350 ft | 272 kts | 353° |
| 2026-05-05 21:24 | 31.30047 | 121.60961 | 6086 ft | 266 kts | 341° |
| 2026-05-05 21:25 | 31.31801 | 121.60270 | 5843 ft | 266 kts | 342° |
| 2026-05-05 21:25 | 31.33559 | 121.59593 | 5612 ft | 264 kts | 342° |
| 2026-05-05 21:25 | 31.35292 | 121.58928 | 5364 ft | 261 kts | 342° |
| 2026-05-05 21:25 | 31.37010 | 121.58328 | 5117 ft | 252 kts | 351° |
| 2026-05-05 21:26 | 31.38691 | 121.58555 | 4979 ft | 241 kts | 25° |
| 2026-05-05 21:26 | 31.39975 | 121.59711 | 4908 ft | 231 kts | 51° |
| 2026-05-05 21:26 | 31.40807 | 121.61281 | 4851 ft | 221 kts | 70° |
| 2026-05-05 21:26 | 31.41219 | 121.63032 | 4480 ft | 230 kts | 79° |
| 2026-05-05 21:27 | 31.41545 | 121.64864 | 4185 ft | 236 kts | 79° |
| 2026-05-05 21:27 | 31.41736 | 121.66737 | 3905 ft | 227 kts | 99° |
| 2026-05-05 21:27 | 31.41145 | 121.68375 | 3714 ft | 217 kts | 134° |
| 2026-05-05 21:27 | 31.39937 | 121.69314 | 3539 ft | 205 kts | 156° |
| 2026-05-05 21:28 | 31.38643 | 121.69962 | 3361 ft | 200 kts | 159° |
| 2026-05-05 21:28 | 31.37349 | 121.70519 | 3161 ft | 196 kts | 161° |
| 2026-05-05 21:28 | 31.36081 | 121.71019 | 3035 ft | 187 kts | 162° |
| 2026-05-05 21:28 | 31.34873 | 121.71483 | 2963 ft | 182 kts | 163° |
| 2026-05-05 21:29 | 31.33663 | 121.71944 | 2931 ft | 185 kts | 162° |
| 2026-05-05 21:29 | 31.32469 | 121.72398 | 2967 ft | 177 kts | 162° |
| 2026-05-05 21:29 | 31.31308 | 121.72839 | 2964 ft | 175 kts | 162° |
| 2026-05-05 21:29 | 31.30173 | 121.73270 | 2855 ft | 169 kts | 163° |
| 2026-05-05 21:30 | 31.29067 | 121.73690 | 2649 ft | 165 kts | 163° |
| 2026-05-05 21:30 | 31.28012 | 121.74091 | 2424 ft | 151 kts | 163° |
| 2026-05-05 21:30 | 31.27075 | 121.74448 | 2230 ft | 133 kts | 163° |
| 2026-05-05 21:30 | 31.26234 | 121.74767 | 2085 ft | 124 kts | 164° |
| 2026-05-05 21:31 | 31.25413 | 121.75078 | 1955 ft | 124 kts | 163° |
| 2026-05-05 21:31 | 31.24603 | 121.75382 | 1834 ft | 122 kts | 164° |
| 2026-05-05 21:31 | 31.23817 | 121.75687 | 1636 ft | 115 kts | 163° |
| 2026-05-05 21:31 | 31.23034 | 121.75986 | 1449 ft | 122 kts | 163° |
| 2026-05-05 21:32 | 31.22197 | 121.76295 | 1285 ft | 129 kts | 163° |
| 2026-05-05 21:32 | 31.21327 | 121.76631 | 1088 ft | 132 kts | 162° |
| 2026-05-05 21:32 | 31.20467 | 121.76958 | 905 ft | 130 kts | 163° |
| 2026-05-05 21:32 | 31.19593 | 121.77283 | 747 ft | 132 kts | 162° |
| 2026-05-05 21:33 | 31.18719 | 121.77618 | 566 ft | 132 kts | 162° |
| 2026-05-05 21:33 | 31.17840 | 121.77947 | 425 ft | 135 kts | 162° |
| 2026-05-05 21:33 | 31.16960 | 121.78284 | 229 ft | 132 kts | 161° |
| 2026-05-05 21:33 | 31.16096 | 121.78613 | 67 ft | 130 kts | 161° |
| 2026-05-05 21:34 | 31.15285 | 121.78920 | 28 ft | 109 kts | 162° |
| 2026-05-05 21:34 | 31.14708 | 121.79135 | 29 ft | 65 kts | 162° |
| 2026-05-05 21:34 | 31.14366 | 121.79264 | 26 ft | 44 kts | 162° |
| 2026-05-05 21:34 | 31.14176 | 121.79365 | 31 ft | 26 kts | 141° |
| 2026-05-05 21:35 | 31.14079 | 121.79476 | 28 ft | 16 kts | 130° |
| 2026-05-05 21:35 | 31.14084 | 121.79579 | 27 ft | 16 kts | 17° |
| 2026-05-05 21:35 | 31.14189 | 121.79553 | 27 ft | 16 kts | 342° |
| 2026-05-05 21:35 | 31.14294 | 121.79514 | 27 ft | 16 kts | 342° |
| 2026-05-05 21:36 | 31.14373 | 121.79569 | 27 ft | 16 kts | 69° |
| 2026-05-05 21:36 | 31.14408 | 121.79689 | 27 ft | 16 kts | 71° |
| 2026-05-05 21:36 | 31.14468 | 121.79780 | 27 ft | 16 kts | 356° |
| 2026-05-05 21:36 | 31.14572 | 121.79740 | 27 ft | 16 kts | 341° |
| 2026-05-05 21:37 | 31.14647 | 121.79743 | 27 ft | 10 kts | 50° |
| 2026-05-05 21:37 | 31.14670 | 121.79809 | 27 ft | 6 kts | 71° |
| 2026-05-05 21:37 | 31.14675 | 121.79827 | 27 ft | 0 kts | 72° |